Tolovana Park, Oregon
Current Conditions -  °F | °C
As of 3:55 PM on Monday 20 Oct 2014 (Local Time) from KAST Reporting Station
Clear Clear  
Wind Chill: 62°   Ceiling: Unl
Heat Index: 62°   Visibility: 10mi
Dew Point: 54°   Wind: 17mph
Humidity: 75%   Direction: 180°S
Pressure: 29.75"   Gusts: 28mph
Location:  45.87°N, 123.96°W
Report Text: KAST 202255Z AUTO 18015G24KT 10SM CLR 17/12 A2975 RMK AO2 SLP075 T01670122
Loading
Personal Weather Stations






























Interactive Weather Map
Tropical Storm Tracking
New forecast layout! Learn more

10-Day Weather Forecast

Advertisements
Track Severe Weather on mobile